KSLO/SLO METAR and TAF weather

Enter ICAO airport designator
Station Type Date Time Source
KSLO METAR 2021/05/07 00:55 UTC NOAA

KSLO 070055Z AUTO 33007KT 10SM CLR 13/06 A3011 RMK AO2 T01280061


Station Type Date Time Source
KSLO Decoded METAR 2021/05/07 00:55 UTC NOAA

Salem, Salem-Leckrone Airport, IL, United States (KSLO) 38-38-34N 088-57-51W 174M
May 06, 2021 - 08:55 PM EDT / 2021.05.07 0055 UTC
Wind: from the NNW (330 degrees) at 8 MPH (7 KT):0
Visibility: 10 mile(s):0
Sky conditions: clear
Temperature: 55.0 F (12.8 C)
Dew Point: 43.0 F (6.1 C)
Relative Humidity: 63%
Pressure (altimeter): 30.11 in. Hg (1019 hPa)
ob: KSLO 070055Z AUTO 33007KT 10SM CLR 13/06 A3011 RMK AO2 T01280061
cycle: 1

Station Type Date Time Source
KSLO TAF UTC NOAA

Error!

Example: see airport list